Terminal Aerodrome Forecast
Issued by NWS Charleston, WV

Home | Current Version | Previous Version | Text Only | Print | Product List | Glossary On
Versions: 1 2 3 4 5 6 7 8 9 10 11 12 13 14 15 16 17 18 19 20 21 22 23 24 25 26 27 28
000
FTUS41 KRLX 021744
TAFEKN
TAF
KEKN 021744Z 0218/0318 26004KT P6SM OVC150
     FM030300 00000KT 3SM BR SCT001
     FM030500 00000KT 1/4SM FG BKN001
     FM031200 00000KT 2SM BR BKN001 BKN250
     FM031300 00000KT P6SM BKN250=

USA.gov is the U.S. government's official web portal to all federal, state and local government web resources and services.